createdAt,value
2023-02-14T00:01:32.158Z,47.36
2023-02-14T00:04:01.722Z,47.29
2023-02-14T00:06:32.712Z,46.25
2023-02-14T00:09:01.147Z,45.17
2023-02-14T00:11:29.908Z,44.90
2023-02-14T00:14:15.293Z,43.49
2023-02-14T00:16:45.523Z,44.65
2023-02-14T00:19:14.560Z,43.52
2023-02-14T00:21:44.217Z,44.39
2023-02-14T00:24:15.072Z,43.75
2023-02-14T00:26:43.987Z,43.79
2023-02-14T00:29:14.752Z,42.67
2023-02-14T00:31:44.616Z,43.80
2023-02-14T00:34:16.330Z,40.86
2023-02-14T00:36:44.950Z,41.23
2023-02-14T00:39:15.139Z,42.00
2023-02-14T00:41:44.324Z,40.91
2023-02-14T00:44:13.692Z,41.65
2023-02-14T00:46:42.690Z,41.13
2023-02-14T00:49:12.017Z,41.28
2023-02-14T00:51:40.322Z,43.07
2023-02-14T00:54:08.206Z,43.11
2023-02-14T00:56:36.179Z,41.43
2023-02-14T00:59:04.153Z,42.50
2023-02-14T01:01:32.167Z,40.80
2023-02-14T01:04:00.075Z,41.27
2023-02-14T01:06:29.550Z,43.84
2023-02-14T01:08:57.424Z,40.21
2023-02-14T01:11:27.489Z,42.35
2023-02-14T01:13:58.878Z,43.08
2023-02-14T01:16:30.386Z,40.90
2023-02-14T01:19:01.257Z,40.73
2023-02-14T01:21:32.713Z,42.58
2023-02-14T01:24:02.719Z,39.48
2023-02-14T01:26:30.781Z,40.68
2023-02-14T01:28:58.927Z,41.12
2023-02-14T01:31:29.808Z,41.10
2023-02-14T01:33:59.076Z,41.41
2023-02-14T01:36:29.584Z,42.00
2023-02-14T01:39:02.176Z,41.33
2023-02-14T01:41:33.470Z,41.46
2023-02-14T01:44:04.254Z,42.44
2023-02-14T01:46:34.672Z,41.56
2023-02-14T01:49:08.467Z,41.42
2023-02-14T01:51:44.208Z,41.63
2023-02-14T01:54:14.391Z,45.15
2023-02-14T01:56:48.685Z,48.49
2023-02-14T01:59:26.322Z,55.71
2023-02-14T02:01:55.310Z,46.82
2023-02-14T02:04:27.704Z,42.58
2023-02-14T02:07:01.136Z,41.89
2023-02-14T02:09:36.741Z,43.34
2023-02-14T02:12:05.212Z,39.13
2023-02-14T02:14:34.440Z,38.80
2023-02-14T02:17:25.306Z,38.99
2023-02-14T02:20:31.564Z,39.61
2023-02-14T02:23:37.858Z,38.48
2023-02-14T02:26:43.757Z,38.17
2023-02-14T02:30:02.322Z,38.37
2023-02-14T02:33:16.745Z,38.11
2023-02-14T02:36:12.399Z,36.55
2023-02-14T02:38:56.629Z,37.35
2023-02-14T02:41:35.705Z,38.43
2023-02-14T02:44:14.446Z,37.81
2023-02-14T02:46:53.812Z,36.36
2023-02-14T02:49:51.609Z,36.22
2023-02-14T02:52:49.389Z,36.03
2023-02-14T02:55:27.627Z,36.13
2023-02-14T02:57:57.007Z,36.44
2023-02-14T03:00:26.518Z,36.82
2023-02-14T03:03:16.589Z,34.07
2023-02-14T03:05:45.361Z,35.84
2023-02-14T03:08:14.576Z,36.91
2023-02-14T03:10:42.495Z,36.04
2023-02-14T03:13:47.317Z,37.28
2023-02-14T03:16:35.441Z,37.12
2023-02-14T03:19:27.950Z,33.17
2023-02-14T03:22:03.309Z,36.13
2023-02-14T03:24:46.567Z,35.78
2023-02-14T03:27:22.971Z,34.21
2023-02-14T03:30:04.143Z,34.29
2023-02-14T03:32:43.823Z,33.56
2023-02-14T03:35:19.972Z,31.85
2023-02-14T03:37:56.588Z,31.13
2023-02-14T03:40:32.274Z,32.91
2023-02-14T03:43:08.454Z,32.21
2023-02-14T03:45:43.125Z,30.85
2023-02-14T03:48:15.222Z,31.30
2023-02-14T03:50:47.699Z,30.86
2023-02-14T03:53:21.692Z,31.45
2023-02-14T03:56:09.949Z,29.84
2023-02-14T03:58:42.217Z,29.62
2023-02-14T04:01:17.891Z,30.51
2023-02-14T04:03:46.287Z,31.03
2023-02-14T04:06:14.656Z,31.56
2023-02-14T04:08:42.528Z,31.66
2023-02-14T04:11:11.844Z,30.39
2023-02-14T04:13:40.762Z,31.11
2023-02-14T04:16:09.401Z,29.88
2023-02-14T04:19:03.076Z,30.93
2023-02-14T04:21:30.980Z,30.82
2023-02-14T04:23:58.902Z,32.07
2023-02-14T04:26:28.273Z,31.76
2023-02-14T04:28:58.548Z,30.85
2023-02-14T04:31:26.514Z,29.75
2023-02-14T04:33:54.489Z,29.84
2023-02-14T04:36:22.398Z,29.92
2023-02-14T04:38:50.242Z,31.20
2023-02-14T04:41:18.102Z,30.44
2023-02-14T04:43:47.357Z,30.00
2023-02-14T04:46:15.236Z,30.45
2023-02-14T04:48:43.169Z,30.40
2023-02-14T04:51:11.092Z,30.58
2023-02-14T04:53:40.354Z,29.14
2023-02-14T04:56:09.200Z,30.48
2023-02-14T04:58:38.101Z,28.76
2023-02-14T05:01:07.471Z,27.83
2023-02-14T05:03:35.440Z,27.58
2023-02-14T05:06:03.359Z,28.95
2023-02-14T05:08:31.224Z,27.45
2023-02-14T05:10:59.472Z,27.54
2023-02-14T05:13:28.526Z,29.40
2023-02-14T05:15:56.800Z,28.34
2023-02-14T05:18:26.621Z,27.88
2023-02-14T05:20:56.190Z,28.28
2023-02-14T05:23:24.595Z,26.77
2023-02-14T05:25:54.657Z,27.78
2023-02-14T05:28:22.730Z,27.21
2023-02-14T05:30:52.071Z,27.56
2023-02-14T05:33:20.465Z,28.71
2023-02-14T05:35:49.750Z,28.75
2023-02-14T05:38:17.898Z,27.76
2023-02-14T05:40:46.667Z,26.98
2023-02-14T05:43:14.534Z,27.46
2023-02-14T05:45:42.504Z,27.60
2023-02-14T05:48:10.447Z,28.95
2023-02-14T05:50:38.416Z,28.17
2023-02-14T05:53:07.714Z,26.91
2023-02-14T05:55:35.714Z,29.29
2023-02-14T05:58:04.649Z,29.84
2023-02-14T06:00:32.794Z,28.36
2023-02-14T06:03:00.942Z,29.57
2023-02-14T06:05:29.208Z,28.01
2023-02-14T06:07:57.247Z,27.18
2023-02-14T06:10:27.347Z,26.62
2023-02-14T06:12:58.231Z,28.52
2023-02-14T06:15:26.162Z,27.83
2023-02-14T06:17:55.006Z,28.58
2023-02-14T06:20:24.424Z,27.98
2023-02-14T06:22:52.908Z,28.03
2023-02-14T06:25:21.285Z,29.05
2023-02-14T06:27:50.889Z,28.71
2023-02-14T06:30:19.785Z,28.39
2023-02-14T06:32:47.665Z,27.11
2023-02-14T06:35:16.173Z,24.12
2023-02-14T06:37:45.335Z,24.47
2023-02-14T06:40:14.550Z,24.68
2023-02-14T06:42:42.568Z,26.93
2023-02-14T06:45:12.509Z,24.27
2023-02-14T06:47:40.450Z,24.05
2023-02-14T06:50:11.615Z,24.30
2023-02-14T06:52:40.071Z,25.65
2023-02-14T06:55:08.747Z,25.04
2023-02-14T06:57:36.597Z,23.56
2023-02-14T07:00:05.314Z,23.72
2023-02-14T07:02:34.624Z,23.71
2023-02-14T07:05:02.518Z,23.80
2023-02-14T07:07:30.421Z,22.33
2023-02-14T07:09:58.264Z,23.43
2023-02-14T07:12:26.181Z,23.28
2023-02-14T07:14:54.067Z,24.77
2023-02-14T07:17:21.969Z,23.63
2023-02-14T07:19:51.243Z,24.24
2023-02-14T07:22:19.137Z,23.68
2023-02-14T07:24:47.056Z,23.35
2023-02-14T07:27:14.972Z,23.30
2023-02-14T07:29:42.809Z,21.96
2023-02-14T07:32:10.830Z,21.90
2023-02-14T07:34:38.876Z,21.43
2023-02-14T07:37:08.160Z,22.04
2023-02-14T07:39:36.139Z,21.06
2023-02-14T07:42:04.074Z,23.30
2023-02-14T07:44:31.965Z,22.65
2023-02-14T07:47:01.821Z,21.55
2023-02-14T07:49:29.748Z,22.37
2023-02-14T07:51:57.721Z,21.72
2023-02-14T07:54:27.197Z,22.39
2023-02-14T07:56:55.171Z,21.72
2023-02-14T07:59:25.831Z,21.84
2023-02-14T08:01:54.124Z,21.55
2023-02-14T08:04:25.974Z,23.46
2023-02-14T08:06:54.379Z,22.07
2023-02-14T08:09:25.710Z,21.03
2023-02-14T08:12:14.549Z,21.81
2023-02-14T08:14:42.920Z,21.50
2023-02-14T08:17:13.424Z,21.35
2023-02-14T08:19:42.178Z,21.37
2023-02-14T08:22:10.295Z,22.02
2023-02-14T08:24:38.356Z,22.12
2023-02-14T08:27:07.691Z,23.29
2023-02-14T08:29:35.602Z,22.80
2023-02-14T08:32:03.622Z,21.90
2023-02-14T08:34:31.645Z,21.36
2023-02-14T08:36:59.664Z,20.76
2023-02-14T08:39:27.778Z,20.06
2023-02-14T08:41:55.755Z,19.65
2023-02-14T08:44:25.198Z,20.55
2023-02-14T08:46:53.215Z,19.87
2023-02-14T08:49:21.145Z,19.85
2023-02-14T08:51:49.223Z,20.02
2023-02-14T08:54:17.326Z,21.31
2023-02-14T08:56:45.406Z,20.87
2023-02-14T08:59:13.428Z,20.95
2023-02-14T09:01:42.909Z,20.33
2023-02-14T09:04:11.046Z,20.55
2023-02-14T09:06:46.088Z,20.72
2023-02-14T09:09:14.295Z,21.01
2023-02-14T09:11:42.477Z,20.89
2023-02-14T09:14:10.597Z,21.39
2023-02-14T09:16:38.686Z,20.99
2023-02-14T09:19:10.154Z,21.11
2023-02-14T09:21:38.233Z,20.17
2023-02-14T09:24:06.291Z,21.33
2023-02-14T09:26:36.952Z,20.72
2023-02-14T09:29:04.955Z,21.25
2023-02-14T09:31:33.227Z,19.74
2023-02-14T09:34:04.828Z,21.70
2023-02-14T09:36:34.770Z,23.22
2023-02-14T09:39:04.593Z,20.94
2023-02-14T09:41:53.034Z,19.70
2023-02-14T09:44:30.548Z,20.43
2023-02-14T09:47:07.426Z,20.13
2023-02-14T09:49:41.938Z,18.96
2023-02-14T09:52:16.652Z,18.55
2023-02-14T09:54:51.131Z,18.60
2023-02-14T09:57:28.698Z,18.81
2023-02-14T10:00:07.960Z,19.36
2023-02-14T10:02:50.198Z,19.26
2023-02-14T10:05:23.965Z,20.18
2023-02-14T10:08:24.567Z,20.23
2023-02-14T10:11:05.245Z,19.49
2023-02-14T10:13:40.838Z,19.37
2023-02-14T10:16:18.317Z,19.35
2023-02-14T10:18:53.078Z,19.11
2023-02-14T10:21:27.292Z,19.65
2023-02-14T10:24:03.776Z,20.36
2023-02-14T10:26:38.217Z,20.05
2023-02-14T10:29:12.605Z,19.84
2023-02-14T10:31:51.590Z,20.23
2023-02-14T10:34:28.178Z,19.22
2023-02-14T10:37:20.968Z,19.22
2023-02-14T10:40:07.092Z,19.51
2023-02-14T10:42:46.003Z,19.50
2023-02-14T10:45:23.874Z,19.73
2023-02-14T10:48:03.841Z,19.82
2023-02-14T10:50:41.312Z,20.39
2023-02-14T10:53:18.956Z,20.49
2023-02-14T10:55:57.046Z,20.02
2023-02-14T10:58:31.216Z,20.67
2023-02-14T11:01:08.239Z,19.87
2023-02-14T11:03:43.892Z,20.64
2023-02-14T11:06:12.714Z,20.08
2023-02-14T11:08:42.397Z,21.04
2023-02-14T11:11:19.353Z,21.00
2023-02-14T11:13:47.315Z,21.88
2023-02-14T11:16:29.711Z,21.22
2023-02-14T11:19:11.707Z,20.37
2023-02-14T11:21:42.221Z,20.33
2023-02-14T11:24:19.407Z,20.80
2023-02-14T11:26:52.948Z,21.54
2023-02-14T11:29:29.029Z,23.00
2023-02-14T11:31:58.859Z,21.17
2023-02-14T11:34:36.776Z,21.03
2023-02-14T11:37:17.623Z,20.37
2023-02-14T11:39:45.538Z,21.70
2023-02-14T11:42:14.888Z,21.85
2023-02-14T11:44:56.281Z,22.41
2023-02-14T11:47:29.636Z,21.60
2023-02-14T11:50:01.048Z,21.36
2023-02-14T11:52:31.234Z,22.28
2023-02-14T11:55:00.388Z,21.28
2023-02-14T11:57:34.873Z,22.01
2023-02-14T12:00:06.011Z,22.31
2023-02-14T12:02:40.471Z,23.46
2023-02-14T12:05:21.430Z,24.76
2023-02-14T12:07:53.680Z,23.72
2023-02-14T12:10:26.289Z,22.62
2023-02-14T12:12:59.465Z,23.39
2023-02-14T12:15:34.454Z,23.38
2023-02-14T12:18:46.131Z,23.98
2023-02-14T12:21:44.130Z,23.60
2023-02-14T12:24:24.815Z,23.61
2023-02-14T12:27:03.976Z,24.59
2023-02-14T12:29:38.394Z,24.77
2023-02-14T12:32:21.392Z,24.97
2023-02-14T12:34:50.701Z,24.12
2023-02-14T12:37:32.119Z,23.75
2023-02-14T12:40:13.034Z,23.70
2023-02-14T12:42:58.507Z,25.16
2023-02-14T12:45:48.650Z,24.23
2023-02-14T12:48:32.157Z,24.74
2023-02-14T12:51:11.878Z,24.65
2023-02-14T12:54:03.280Z,25.17
2023-02-14T12:56:47.519Z,23.97
2023-02-14T12:59:29.807Z,23.35
2023-02-14T13:02:38.332Z,23.41
2023-02-14T13:05:19.978Z,23.18
2023-02-14T13:08:09.534Z,24.28
2023-02-14T13:10:52.986Z,23.81
2023-02-14T13:13:33.301Z,24.12
2023-02-14T13:16:18.687Z,24.82
2023-02-14T13:18:57.277Z,24.15
2023-02-14T13:21:30.836Z,25.03
2023-02-14T13:24:15.652Z,24.66
2023-02-14T13:26:49.613Z,25.30
2023-02-14T13:29:23.574Z,24.26
2023-02-14T13:31:57.687Z,24.16
2023-02-14T13:34:33.506Z,27.31
2023-02-14T13:37:07.466Z,25.24
2023-02-14T13:39:41.962Z,27.22
2023-02-14T13:42:11.675Z,26.71
2023-02-14T13:44:48.113Z,26.01
2023-02-14T13:47:22.459Z,26.29
2023-02-14T13:49:56.734Z,25.54
2023-02-14T13:52:40.611Z,24.82
2023-02-14T13:55:10.823Z,23.90
2023-02-14T13:57:41.323Z,24.68
2023-02-14T14:00:39.336Z,24.80
2023-02-14T14:03:12.944Z,25.20
2023-02-14T14:06:00.615Z,24.99
2023-02-14T14:08:46.074Z,25.14
2023-02-14T14:11:56.645Z,24.50
2023-02-14T14:14:39.716Z,25.85
2023-02-14T14:17:25.912Z,25.72
2023-02-14T14:19:54.058Z,24.51
2023-02-14T14:22:23.455Z,23.53
2023-02-14T14:25:00.547Z,25.04
2023-02-14T14:27:34.472Z,24.13
2023-02-14T14:30:05.878Z,24.66
2023-02-14T14:32:36.359Z,24.50
2023-02-14T14:35:08.301Z,25.02
2023-02-14T14:37:46.717Z,23.84
2023-02-14T14:40:24.921Z,24.29
2023-02-14T14:42:54.191Z,25.83
2023-02-14T14:45:27.380Z,27.08
2023-02-14T14:47:59.591Z,25.39
2023-02-14T14:50:30.626Z,25.01
2023-02-14T14:53:04.636Z,25.74
2023-02-14T14:55:37.351Z,25.62
2023-02-14T14:58:09.388Z,25.54
2023-02-14T15:00:42.258Z,25.93
2023-02-14T15:03:17.333Z,27.39
2023-02-14T15:05:47.877Z,26.32
2023-02-14T15:08:22.518Z,26.99
2023-02-14T15:10:55.617Z,25.47
2023-02-14T15:13:53.772Z,27.49
2023-02-14T15:16:26.148Z,28.26
2023-02-14T15:18:58.827Z,27.71
2023-02-14T15:21:27.627Z,27.84
2023-02-14T15:23:57.265Z,26.99
2023-02-14T15:26:31.554Z,26.19
2023-02-14T15:29:01.783Z,26.32
2023-02-14T15:31:34.252Z,25.69
2023-02-14T15:34:04.698Z,24.99
2023-02-14T15:36:35.323Z,24.30
2023-02-14T15:39:10.326Z,26.44
2023-02-14T15:41:45.350Z,24.76
2023-02-14T15:44:20.960Z,26.16
2023-02-14T15:46:53.978Z,24.77
2023-02-14T15:49:28.987Z,26.78
2023-02-14T15:51:57.188Z,26.26
2023-02-14T15:54:36.460Z,25.88
2023-02-14T15:59:42.570Z,27.01
2023-02-14T16:02:29.213Z,28.77
2023-02-14T16:05:05.409Z,28.17
2023-02-14T16:07:33.892Z,28.52
2023-02-14T16:10:25.545Z,27.45
2023-02-14T16:13:00.833Z,28.66
2023-02-14T16:15:31.873Z,28.52
2023-02-14T16:18:01.026Z,28.95
2023-02-14T16:20:42.003Z,29.08
2023-02-14T16:23:23.621Z,31.07
2023-02-14T16:25:53.073Z,27.42
2023-02-14T16:28:22.883Z,26.12
2023-02-14T16:30:56.955Z,26.24
2023-02-14T16:33:27.752Z,26.17
2023-02-14T16:36:02.226Z,26.01
2023-02-14T16:38:30.142Z,25.86
2023-02-14T16:40:59.858Z,24.20
2023-02-14T16:43:27.896Z,25.30
2023-02-14T16:45:55.851Z,25.04
2023-02-14T16:48:23.778Z,25.25
2023-02-14T16:50:52.509Z,25.23
2023-02-14T16:53:26.826Z,25.00
2023-02-14T16:55:57.023Z,26.36
2023-02-14T16:58:33.586Z,25.41
2023-02-14T17:01:01.775Z,24.93
2023-02-14T17:03:29.902Z,27.04
2023-02-14T17:05:59.183Z,26.63
2023-02-14T17:08:27.746Z,26.46
2023-02-14T17:10:58.554Z,25.54
2023-02-14T17:13:33.465Z,26.71
2023-02-14T17:16:01.936Z,28.11
2023-02-14T17:18:33.964Z,27.77
2023-02-14T17:21:02.873Z,28.50
2023-02-14T17:23:33.017Z,29.32
2023-02-14T17:26:01.043Z,30.52
2023-02-14T17:28:30.564Z,29.33
2023-02-14T17:31:00.673Z,30.16
2023-02-14T17:33:30.489Z,31.40
2023-02-14T17:36:05.230Z,33.83
2023-02-14T17:38:33.353Z,33.45
2023-02-14T17:41:01.597Z,33.05
2023-02-14T17:43:31.101Z,31.67
2023-02-14T17:45:59.094Z,31.98
2023-02-14T17:48:27.189Z,32.07
2023-02-14T17:50:55.190Z,35.22
2023-02-14T17:53:23.092Z,32.27
2023-02-14T17:55:51.067Z,33.58
2023-02-14T17:58:18.998Z,34.15
2023-02-14T18:00:48.255Z,34.79
2023-02-14T18:03:16.178Z,34.61
2023-02-14T18:05:44.068Z,36.20
2023-02-14T18:08:12.006Z,37.01
2023-02-14T18:10:39.885Z,37.00
2023-02-14T18:13:07.761Z,39.05
2023-02-14T18:15:35.652Z,39.35
2023-02-14T18:18:06.132Z,40.76
2023-02-14T18:20:34.033Z,39.29
2023-02-14T18:23:06.999Z,37.56
2023-02-14T18:25:34.989Z,39.82
2023-02-14T18:28:04.803Z,46.43
2023-02-14T18:30:32.699Z,47.53
2023-02-14T18:33:00.658Z,43.19
2023-02-14T18:35:29.945Z,42.44
2023-02-14T18:37:57.835Z,42.81
2023-02-14T18:40:25.756Z,43.93
2023-02-14T18:42:53.663Z,44.36
2023-02-14T18:45:22.486Z,48.51
2023-02-14T18:47:50.426Z,49.81
2023-02-14T18:50:18.608Z,47.45
2023-02-14T18:52:47.931Z,48.26
2023-02-14T18:55:15.843Z,45.98
2023-02-14T18:57:43.773Z,47.96
2023-02-14T19:00:13.052Z,45.22
2023-02-14T19:02:41.720Z,46.20
2023-02-14T19:05:11.016Z,46.82
2023-02-14T19:07:38.889Z,43.40
2023-02-14T19:10:09.968Z,46.85
2023-02-14T19:12:37.857Z,46.02
2023-02-14T19:15:06.303Z,41.39
2023-02-14T19:17:34.755Z,41.96
2023-02-14T19:20:08.483Z,41.56
2023-02-14T19:22:39.388Z,41.21
2023-02-14T19:25:09.646Z,41.16
2023-02-14T19:27:38.100Z,40.48
2023-02-14T19:30:07.369Z,39.26
2023-02-14T19:32:35.362Z,36.99
2023-02-14T19:35:03.305Z,36.74
2023-02-14T19:37:31.465Z,35.90
2023-02-14T19:39:59.413Z,37.00
2023-02-14T19:42:28.738Z,35.12
2023-02-14T19:44:56.694Z,34.54
2023-02-14T19:47:36.471Z,32.50
2023-02-14T19:50:11.625Z,33.32
2023-02-14T19:52:39.678Z,33.56
2023-02-14T19:55:08.601Z,31.87
2023-02-14T19:57:37.929Z,30.12
2023-02-14T20:00:08.731Z,31.09
2023-02-14T20:02:37.160Z,31.91
2023-02-14T20:05:05.417Z,31.18
2023-02-14T20:07:33.394Z,27.94
2023-02-14T20:10:01.519Z,27.29
2023-02-14T20:12:29.471Z,28.00
2023-02-14T20:14:58.835Z,28.08
2023-02-14T20:17:26.785Z,27.37
2023-02-14T20:19:55.907Z,25.32
2023-02-14T20:22:24.481Z,24.80
2023-02-14T20:24:52.645Z,25.19
2023-02-14T20:27:21.454Z,26.15
2023-02-14T20:29:51.130Z,26.86
2023-02-14T20:32:20.609Z,26.81
2023-02-14T20:34:48.953Z,26.74
2023-02-14T20:37:16.952Z,25.98
2023-02-14T20:39:45.072Z,27.16
2023-02-14T20:42:13.060Z,25.69
2023-02-14T20:44:41.511Z,26.19
2023-02-14T20:47:11.267Z,24.85
2023-02-14T20:49:44.648Z,26.66
2023-02-14T20:52:13.247Z,26.69
2023-02-14T20:54:41.187Z,26.17
2023-02-14T20:57:09.141Z,26.13
2023-02-14T20:59:37.694Z,25.60
2023-02-14T21:02:05.656Z,25.70
2023-02-14T21:04:35.187Z,26.83
2023-02-14T21:07:08.817Z,26.56
2023-02-14T21:09:37.783Z,26.40
2023-02-14T21:12:06.723Z,26.36
2023-02-14T21:14:34.731Z,26.14
2023-02-14T21:17:04.412Z,26.45
2023-02-14T21:19:32.937Z,25.87
2023-02-14T21:22:01.076Z,26.13
2023-02-14T21:24:30.487Z,24.46
2023-02-14T21:26:58.705Z,25.17
2023-02-14T21:29:26.766Z,24.94
2023-02-14T21:31:54.814Z,25.32
2023-02-14T21:34:22.884Z,24.45
2023-02-14T21:36:53.444Z,24.48
2023-02-14T21:39:25.646Z,24.33
2023-02-14T21:41:56.321Z,24.13
2023-02-14T21:44:38.449Z,24.34
2023-02-14T21:47:06.488Z,25.14
2023-02-14T21:49:52.290Z,24.95
2023-02-14T21:52:20.318Z,25.05
2023-02-14T21:54:48.445Z,24.86
2023-02-14T21:57:17.864Z,25.52
2023-02-14T21:59:45.909Z,25.12
2023-02-14T22:02:14.205Z,25.34
2023-02-14T22:04:45.716Z,25.95
2023-02-14T22:07:13.709Z,25.77
2023-02-14T22:09:41.647Z,26.64
2023-02-14T22:12:09.578Z,26.49
2023-02-14T22:14:39.097Z,27.75
2023-02-14T22:17:07.326Z,25.86
2023-02-14T22:19:36.457Z,27.01
2023-02-14T22:22:04.947Z,28.17
2023-02-14T22:24:32.945Z,27.31
2023-02-14T22:27:00.867Z,27.28
2023-02-14T22:29:29.150Z,26.89
2023-02-14T22:31:58.623Z,28.19
2023-02-14T22:34:27.646Z,28.56
2023-02-14T22:36:55.872Z,28.69
2023-02-14T22:39:24.108Z,27.06
2023-02-14T22:41:52.085Z,28.98
2023-02-14T22:44:20.203Z,28.78
2023-02-14T22:46:48.249Z,28.21
2023-02-14T22:49:17.622Z,28.67
2023-02-14T22:51:45.763Z,30.27
2023-02-14T22:54:15.469Z,30.27
2023-02-14T22:56:45.964Z,31.03
2023-02-14T22:59:17.822Z,31.73
2023-02-14T23:01:47.205Z,30.39
2023-02-14T23:04:19.366Z,30.07
2023-02-14T23:06:47.305Z,31.04
2023-02-14T23:09:16.807Z,30.47
2023-02-14T23:11:46.792Z,29.01
2023-02-14T23:14:34.279Z,29.30
2023-02-14T23:17:20.061Z,27.98
2023-02-14T23:20:07.290Z,29.57
2023-02-14T23:22:38.024Z,29.55
2023-02-14T23:25:08.843Z,29.96
2023-02-14T23:27:39.173Z,31.74
2023-02-14T23:30:08.919Z,32.29
2023-02-14T23:32:37.461Z,30.42
2023-02-14T23:35:07.692Z,29.35
2023-02-14T23:37:35.731Z,29.51
2023-02-14T23:40:04.482Z,30.78
2023-02-14T23:42:32.500Z,30.04
2023-02-14T23:45:20.966Z,30.15
2023-02-14T23:47:48.967Z,29.70
2023-02-14T23:50:18.542Z,29.69
2023-02-14T23:52:46.412Z,28.93
2023-02-14T23:55:14.549Z,30.15
2023-02-14T23:57:42.680Z,28.81
